Latest Weather Observations for Bradshaw

IDD60801

Issued at 10:35 pm CST Saturday 1 November 2014 (issued every 30 minutes, with the page automatically refreshed every 10 minutes)

About weather observations | Map of weather stations | Latest weather observations for NT | Other Formats
Station Details ID: 014954 Name: BRADSHAW Lat: -14.94 Lon: 130.81 Height: 75.0 m
Data from the previous 72 hours. | See also: Recent months at Bradshaw
Date/Time
CST
Temp
°C
App
Temp
°C
Dew
Point
Rel
Hum
%
Delta-T
°C
Wind Press
QNH
hPa
Press
MSL
hPa
Rain
since 9 am
mm
Dir
 
Spd
km/h
Gust
km/h
Spd
kts
Gust
kts
01/10:30pm 32.6 34.2 19.1 44 8.9 WNW 9 13 5 7 1009.7 - 0.0
01/10:00pm 33.5 33.6 18.4 40 9.9 W 15 24 8 13 1009.3 - 0.0
01/09:30pm 33.9 34.8 18.4 40 10.1 WNW 11 17 6 9 1008.9 - 0.0
01/09:00pm 34.0 35.3 18.5 40 10.1 WNW 9 15 5 8 1008.5 1007.9 0.0
01/08:30pm 34.4 35.9 18.0 37 10.7 NW 7 11 4 6 1008.2 - 0.0
01/08:00pm 35.3 35.6 18.0 36 11.3 W 13 19 7 10 1007.8 - 0.0
01/07:30pm 36.1 35.9 17.7 33 12.0 W 15 22 8 12 1007.4 - 0.0
01/07:00pm 38.1 35.9 6.0 14 17.8 NE 7 13 4 7 1007.1 - 0.0
01/06:30pm 39.3 35.9 5.8 13 18.6 NNE 13 20 7 11 1006.6 - 0.0
01/06:00pm 39.9 36.3 5.1 12 19.2 ENE 13 22 7 12 1006.4 1005.9 0.0
01/05:30pm 40.7 35.9 4.5 11 19.8 NE 19 30 10 16 1006.2 - 0.0
01/05:00pm 41.5 37.2 5.1 11 20.2 ENE 17 28 9 15 1006.0 - 0.0
01/04:30pm 42.0 37.4 5.5 11 20.4 NNE 19 26 10 14 1005.9 - 0.0
01/04:00pm 40.7 36.4 6.9 13 19.2 ENE 19 28 10 15 1006.0 - 0.0
01/03:30pm 40.5 37.6 6.7 13 19.1 E 11 20 6 11 1006.3 - 0.0
01/03:00pm 42.0 39.4 7.9 13 19.8 NE 11 22 6 12 1006.4 1005.9 0.0
01/02:30pm 40.8 38.1 9.1 15 18.6 ENE 13 28 7 15 1007.0 - 0.0
01/02:00pm 42.2 39.8 10.2 15 19.2 NE 13 24 7 13 1007.7 - 0.0
01/01:30pm 41.4 38.9 12.3 18 17.9 N 17 24 9 13 1008.4 - 0.0
01/01:00pm 39.6 38.6 12.4 20 16.6 NW 9 24 5 13 1009.2 - 0.0
01/12:30pm 39.8 38.6 14.1 22 16.1 N 13 24 7 13 1010.0 - 0.0
01/12:00pm 39.5 39.5 15.2 24 15.5 WNW 9 20 5 11 1010.6 1010.0 0.0
01/11:30am 37.7 38.6 16.1 28 13.8 WSW 6 11 3 6 1011.2 - 0.0
01/11:00am 37.5 38.4 17.5 30 13.0 SSW 9 19 5 10 1011.5 - 0.0
01/10:30am 36.0 37.7 18.1 34 11.7 NNW 6 9 3 5 1012.1 - 0.0
01/10:00am 34.5 36.4 18.9 39 10.3 NNW 7 13 4 7 1012.4 - 0.0
01/09:30am 33.3 35.6 19.4 44 9.2 WNW 6 13 3 7 1012.6 - 0.0
01/09:00am 31.8 34.9 21.0 52 7.3 S 6 9 3 5 1012.5 1011.9 0.0
01/08:30am 30.5 33.9 22.7 63 5.3 SSE 9 15 5 8 1012.6 - 0.0
01/08:00am 29.3 33.4 23.3 70 4.1 S 7 11 4 6 1012.4 - 0.0
01/07:30am 28.4 33.2 22.9 72 3.8 ESE 2 9 1 5 1012.3 - 0.0
01/07:00am 27.3 31.8 22.9 77 3.0 ENE 4 7 2 4 1011.8 - 0.0
01/06:30am 25.8 29.5 22.5 82 2.2 E 7 9 4 5 1011.2 - 0.0
01/06:00am 25.8 30.7 22.3 81 2.4 CALM 0 0 0 0 1010.5 1009.9 0.0
01/05:30am 26.4 31.5 22.7 80 2.5 CALM 0 6 0 3 1010.1 - 0.0
01/05:00am 26.6 30.8 22.4 78 2.8 NNW 4 7 2 4 1009.7 - 0.0
01/04:30am 26.8 30.3 22.8 79 2.7 NNW 9 11 5 6 1009.5 - 0.0
01/04:00am 27.1 30.9 22.7 77 3.0 N 7 9 4 5 1009.3 - 0.0
01/03:30am 27.3 30.8 22.9 77 3.0 NNW 9 11 5 6 1009.0 - 0.0
01/03:00am 27.6 31.4 22.8 75 3.3 NNW 7 9 4 5 1009.1 1008.5 0.0
01/02:30am 27.8 31.2 22.7 74 3.5 NW 9 13 5 7 1009.1 - 0.0
01/02:00am 28.2 31.3 22.9 73 3.6 NNW 11 17 6 9 1009.2 - 0.0
01/01:30am 28.4 31.6 22.4 70 4.1 NNW 9 15 5 8 1009.2 - 0.0
01/01:00am 28.7 31.9 22.4 68 4.3 NNW 9 15 5 8 1009.3 - 0.0
01/12:30am 29.3 32.2 22.5 67 4.6 NNW 11 20 6 11 1009.4 - 0.0
01/12:00am 29.9 31.6 22.3 63 5.2 NNW 17 24 9 13 1009.6 1009.0 0.0
 
Date/Time
CST
Temp
°C
App
Temp
°C
Dew
Point
Rel
Hum
%
Delta-T
°C
Wind Press
QNH
hPa
Press
MSL
hPa
Rain
since 9 am
mm
Dir
 
Spd
km/h
Gust
km/h
Spd
kts
Gust
kts
31/11:30pm 30.8 32.8 21.6 58 6.2 NW 13 20 7 11 1009.9 - 0.0
31/11:00pm 31.2 32.6 21.1 55 6.8 WNW 15 20 8 11 1009.7 - 0.0
31/10:30pm 31.6 33.2 21.4 54 6.9 NW 15 24 8 13 1009.8 - 0.0
31/10:00pm 31.8 33.8 20.7 51 7.4 NW 11 17 6 9 1009.7 - 0.0
31/09:30pm 32.1 33.5 21.0 52 7.5 NW 15 22 8 12 1009.4 - 0.0
31/09:00pm 32.7 34.7 22.2 54 7.2 W 15 19 8 10 1008.9 1008.3 0.0
31/08:30pm 32.9 34.6 22.4 54 7.2 W 17 22 9 12 1008.6 - 0.0
31/08:00pm 33.5 34.8 21.6 49 8.1 W 17 26 9 14 1008.4 - 0.0
31/07:30pm 34.1 34.4 20.5 45 9.1 WNW 19 33 10 18 1007.8 - 0.0
31/07:00pm 35.6 36.2 19.5 38 10.7 WNW 15 20 8 11 1006.9 - 0.0
31/06:30pm 38.8 36.3 11.0 19 16.6 N 15 22 8 12 1006.2 - 0.0
31/06:00pm 38.8 36.9 11.8 20 16.4 N 13 19 7 10 1005.9 1005.4 0.0
31/05:30pm 39.5 36.5 10.8 18 17.2 N 17 24 9 13 1005.6 - 0.0
31/05:00pm 39.4 37.4 11.5 19 16.8 N 13 19 7 10 1005.4 - 0.0
31/04:30pm 39.5 38.9 11.6 19 16.9 ENE 6 15 3 8 1005.6 - 0.0
31/04:00pm 40.6 39.3 12.5 19 17.3 NNW 11 20 6 11 1005.7 - 0.0
31/03:30pm 39.8 36.8 12.6 20 16.7 N 20 24 11 13 1006.2 - 0.0
31/03:00pm 40.7 38.9 13.3 20 17.1 E 15 20 8 11 1006.4 1005.9 0.0
31/02:30pm 40.7 40.9 14.8 22 16.4 E 7 20 4 11 1006.7 - 0.0
31/02:00pm 40.1 39.5 15.7 24 15.6 NNW 13 20 7 11 1007.4 - 0.0
31/01:30pm 38.9 37.9 16.5 26 14.5 NNW 17 28 9 15 1008.1 - 0.0
31/01:00pm 39.1 38.7 16.1 26 14.8 NNE 13 20 7 11 1008.8 - 0.0
31/12:30pm 38.2 39.1 17.6 30 13.5 NNW 9 19 5 10 1009.6 - 0.0
31/12:00pm 37.5 38.8 19.4 34 12.1 WNW 11 20 6 11 1010.3 1009.7 0.0
31/11:30am 36.2 38.0 19.6 37 11.1 WNW 9 20 5 11 1010.9 - 0.0
31/11:00am 35.7 36.3 18.7 36 11.2 NNW 13 24 7 13 1011.4 - 0.0
31/10:30am 34.6 35.2 20.2 43 9.6 N 17 26 9 14 1011.8 - 0.0
31/10:00am 34.0 36.2 21.8 49 8.3 N 13 22 7 12 1012.2 - 0.0
31/09:30am 32.7 34.5 21.9 53 7.4 NNW 15 26 8 14 1012.2 - 0.0
31/09:00am 32.0 34.3 22.1 55 6.8 NW 13 20 7 11 1012.0 1011.4 0.0
31/08:30am 30.8 33.7 23.2 64 5.2 NW 13 19 7 10 1011.8 - 0.0
31/08:00am 29.4 32.2 23.6 71 4.0 WNW 15 20 8 11 1011.5 - 0.0
31/07:30am 28.5 32.4 23.6 75 3.4 NW 9 11 5 6 1011.3 - 0.0
31/07:00am 27.4 31.5 23.0 77 3.0 NNW 6 9 3 5 1010.9 - 0.0
31/06:30am 26.7 30.7 22.8 79 2.6 NNW 6 7 3 4 1010.7 - 0.0
31/06:00am 26.8 30.3 22.8 79 2.7 NNW 9 11 5 6 1010.3 1009.7 0.0
31/05:30am 26.8 30.4 22.4 77 3.0 NNW 7 11 4 6 1009.9 - 0.0
31/05:00am 27.2 30.2 22.6 76 3.1 NNW 11 15 6 8 1009.4 - 0.0
31/04:30am 27.3 30.5 22.3 74 3.4 NNW 9 11 5 6 1009.2 - 0.0
31/04:00am 27.6 30.7 22.1 72 3.7 NNW 9 13 5 7 1009.0 - 0.0
31/03:30am 28.2 30.6 22.2 70 4.1 N 13 17 7 9 1008.9 - 0.0
31/03:00am 27.8 31.3 22.1 71 3.9 NNW 7 11 4 6 1008.8 1008.2 0.0
31/02:30am 27.9 31.3 21.7 69 4.2 NW 6 7 3 4 1008.8 - 0.0
31/02:00am 28.3 32.2 21.8 68 4.4 NNW 4 7 2 4 1009.0 - 0.0
31/01:30am 28.6 31.3 22.1 68 4.4 NW 11 15 6 8 1009.2 - 0.0
31/01:00am 29.0 32.0 22.0 66 4.7 NNW 9 15 5 8 1009.2 - 0.0
31/12:30am 29.2 31.6 22.2 66 4.7 NW 13 20 7 11 1009.6 - 0.0
31/12:00am 29.4 32.1 22.1 65 5.0 NNW 11 15 6 8 1009.7 1009.1 0.0
 
Date/Time
CST
Temp
°C
App
Temp
°C
Dew
Point
Rel
Hum
%
Delta-T
°C
Wind Press
QNH
hPa
Press
MSL
hPa
Rain
since 9 am
mm
Dir
 
Spd
km/h
Gust
km/h
Spd
kts
Gust
kts
30/11:30pm 29.9 32.1 21.8 62 5.5 NNW 13 19 7 10 1009.8 - 0.0
30/11:00pm 30.4 31.8 21.8 60 5.8 NNW 17 24 9 13 1009.7 - 0.0
30/10:30pm 31.2 33.6 20.8 54 7.0 NW 9 13 5 7 1009.4 - 0.0
30/10:00pm 31.7 32.5 20.6 51 7.4 WNW 17 28 9 15 1009.1 - 0.0
30/09:30pm 32.1 31.9 19.4 47 8.4 NW 19 30 10 16 1008.7 - 0.0
30/09:00pm 32.7 31.3 18.8 43 9.1 NW 24 35 13 19 1008.4 1007.8 0.0
30/08:30pm 33.0 32.4 17.6 40 9.9 NW 17 28 9 15 1008.1 - 0.0
30/08:00pm 33.8 32.4 17.1 37 10.7 NW 20 35 11 19 1007.7 - 0.0
30/07:30pm 35.7 34.6 8.5 19 15.5 ENE 4 9 2 5 1007.1 - 0.0
30/07:00pm 38.0 36.0 8.7 17 16.9 ENE 9 13 5 7 1006.7 - 0.0
30/06:30pm 39.3 35.8 8.9 16 17.7 ENE 17 26 9 14 1006.4 - 0.0
30/06:00pm 39.6 35.6 8.1 15 18.2 E 19 24 10 13 1006.1 1005.6 0.0
30/05:30pm 40.1 36.7 7.5 14 18.6 ENE 15 22 8 12 1005.8 - 0.0
30/05:00pm 41.4 38.6 8.5 14 19.2 NE 13 22 7 12 1005.8 - 0.0
30/04:30pm 40.8 37.1 8.1 14 18.9 ENE 17 20 9 11 1005.7 - 0.0
30/04:00pm 41.8 39.2 7.7 13 19.7 E 11 24 6 13 1005.8 - 0.0
30/03:30pm 41.8 38.4 7.7 13 19.7 NE 15 30 8 16 1006.1 - 0.0
30/03:00pm 40.1 37.4 10.4 17 17.7 NNE 15 22 8 12 1006.5 1006.0 0.0
30/02:30pm 40.2 37.8 11.3 18 17.4 E 15 22 8 12 1006.9 - 0.0
30/02:00pm 41.2 40.5 11.3 17 18.1 E 6 19 3 10 1007.3 - 0.0
30/01:30pm 39.6 39.1 13.9 22 16.0 NNW 9 19 5 10 1007.9 - 0.0
30/01:00pm 40.1 38.4 13.6 21 16.5 N 15 24 8 13 1008.7 - 0.0
30/12:30pm 38.6 37.3 13.8 23 15.4 NE 13 20 7 11 1009.3 - 0.0
30/12:00pm 38.7 37.3 14.5 24 15.2 N 15 26 8 14 1010.1 1009.5 0.0
30/11:30am 37.5 37.8 17.0 30 13.3 N 11 24 6 13 1010.6 - 0.0
30/11:00am 36.3 37.0 17.0 32 12.4 NW 9 15 5 8 1011.1 - 0.0
30/10:30am 35.8 37.7 19.7 39 10.7 WSW 9 15 5 8 1011.5 - 0.0
30/10:00am 34.1 35.8 20.1 43 9.3 W 11 19 6 10 1012.0 - 0.0
30/09:30am 33.0 34.3 20.9 49 8.1 NNW 15 20 8 11 1012.3 - 0.0
30/09:00am 32.1 33.8 21.6 53 7.1 NNW 15 20 8 11 1012.4 1011.8 0.0
30/08:30am 30.6 33.1 22.5 62 5.5 N 13 19 7 10 1012.3 - 0.0
30/08:00am 29.8 32.9 22.8 66 4.8 N 11 15 6 8 1012.2 - 0.0
30/07:30am 28.5 32.3 22.7 71 4.0 NNW 7 11 4 6 1012.0 - 0.0
30/07:00am 27.7 31.4 22.6 74 3.5 NNW 7 9 4 5 1011.6 - 0.0
30/06:30am 26.6 31.1 21.6 74 3.3 CALM 0 0 0 0 1011.4 - 0.0
30/06:00am 26.9 31.6 21.9 74 3.4 CALM 0 0 0 0 1011.0 1010.4 0.0
30/05:30am 26.9 30.9 22.1 75 3.2 WSW 4 7 2 4 1010.8 - 0.0
30/05:00am 27.2 31.8 22.4 75 3.2 WSW 2 7 1 4 1010.5 - 0.0
30/04:30am 27.4 31.9 22.3 73 3.4 SSE 2 9 1 5 1010.2 - 0.0
30/04:00am 27.6 31.3 22.5 74 3.5 WNW 7 15 4 8 1010.2 - 0.0
30/03:30am 27.9 30.9 22.6 73 3.6 N 11 20 6 11 1010.1 - 0.0
30/03:00am 28.0 30.6 22.0 70 4.0 N 11 19 6 10 1010.1 1009.5 0.0
30/02:30am 28.4 29.9 21.2 65 4.8 N 15 20 8 11 1010.1 - 0.0
30/02:00am 28.7 30.3 20.7 62 5.3 N 13 19 7 10 1010.0 - 0.0
30/01:30am 29.2 30.9 20.9 61 5.5 N 13 20 7 11 1010.1 - 0.0
30/01:00am 29.6 31.1 20.5 58 6.0 NNW 13 19 7 10 1010.0 - 0.0
30/12:30am 30.3 31.0 20.5 55 6.5 NNW 17 24 9 13 1010.0 - 0.0
30/12:00am 30.5 31.8 20.1 53 6.9 NNW 13 15 7 8 1010.0 1009.4 0.0
 
Date/Time
CST
Temp
°C
App
Temp
°C
Dew
Point
Rel
Hum
%
Delta-T
°C
Wind Press
QNH
hPa
Press
MSL
hPa
Rain
since 9 am
mm
Dir
 
Spd
km/h
Gust
km/h
Spd
kts
Gust
kts
29/11:30pm 31.1 33.3 20.4 53 7.1 NNW 9 15 5 8 1010.2 - 0.0
29/11:00pm 31.4 34.0 20.0 50 7.5 NNW 6 9 3 5 1010.2 - 0.0

Other Formats:

Comma delimited format used in spreadsheet applications
http://www.bom.gov.au/fwo/IDD60801/IDD60801.94130.axf

JavaScript Object Notation format (JSON) in row-major order
http://www.bom.gov.au/fwo/IDD60801/IDD60801.94130.json